createdAt,value
2018-10-01T00:00:55.256Z,100809.66
2018-10-01T00:03:23.627Z,100811.11
2018-10-01T00:05:51.909Z,100812.39
2018-10-01T00:08:20.242Z,100810.25
2018-10-01T00:10:48.575Z,100813.37
2018-10-01T00:13:16.909Z,100808.31
2018-10-01T00:15:45.270Z,100808.15
2018-10-01T00:18:13.583Z,100810.63
2018-10-01T00:20:47.020Z,100810.98
2018-10-01T00:23:15.395Z,100815.59
2018-10-01T00:25:43.708Z,100815.13
2018-10-01T00:28:12.111Z,100810.20
2018-10-01T00:30:40.460Z,100821.27
2018-10-01T00:33:08.796Z,100816.81
2018-10-01T00:35:37.317Z,100814.02
2018-10-01T00:38:05.611Z,100806.80
2018-10-01T00:40:33.940Z,100807.13
2018-10-01T00:43:02.246Z,100809.30
2018-10-01T00:45:30.584Z,100811.78
2018-10-01T00:47:58.847Z,100814.41
2018-10-01T00:50:27.149Z,100806.18
2018-10-01T00:52:55.441Z,100810.13
2018-10-01T00:55:23.780Z,100807.00
2018-10-01T00:57:52.317Z,100809.84
2018-10-01T01:00:20.600Z,100807.86
2018-10-01T01:02:48.956Z,100805.22
2018-10-01T01:05:17.256Z,100806.41
2018-10-01T01:07:45.883Z,100803.28
2018-10-01T01:10:14.216Z,100801.47
2018-10-01T01:12:42.631Z,100797.52
2018-10-01T01:15:10.965Z,100800.84
2018-10-01T01:17:39.295Z,100795.24
2018-10-01T01:20:07.729Z,100794.13
2018-10-01T01:22:36.057Z,100796.27
2018-10-01T01:25:04.383Z,100796.27
2018-10-01T01:27:32.721Z,100792.30
2018-10-01T01:30:01.045Z,100788.72
2018-10-01T01:32:29.357Z,100787.73
2018-10-01T01:34:57.790Z,100785.42
2018-10-01T01:37:26.115Z,100793.49
2018-10-01T01:39:54.485Z,100789.84
2018-10-01T01:42:22.808Z,100789.02
2018-10-01T01:44:51.244Z,100786.52
2018-10-01T01:47:19.561Z,100798.05
2018-10-01T01:49:47.867Z,100802.48
2018-10-01T01:52:16.169Z,100807.07
2018-10-01T01:54:44.503Z,100808.88
2018-10-01T01:57:12.853Z,100816.78
2018-10-01T01:59:41.231Z,100821.56
2018-10-01T02:02:09.583Z,100816.95
2018-10-01T02:04:37.900Z,100812.50
2018-10-01T02:07:06.304Z,100818.77
2018-10-01T02:09:34.647Z,100810.16
2018-10-01T02:12:02.976Z,100810.00
2018-10-01T02:14:31.265Z,100814.45
2018-10-01T02:16:59.617Z,100800.94
2018-10-01T02:19:27.955Z,100810.49
2018-10-01T02:21:56.376Z,100805.59
2018-10-01T02:24:24.691Z,100817.91
2018-10-01T02:26:53.016Z,100815.27
2018-10-01T02:29:21.353Z,100818.40
2018-10-01T02:31:49.694Z,100827.13
2018-10-01T02:34:18.009Z,100820.51
2018-10-01T02:36:46.351Z,100821.45
2018-10-01T02:39:14.783Z,100828.63
2018-10-01T02:41:43.148Z,100827.37
2018-10-01T02:44:11.464Z,100834.70
2018-10-01T02:46:39.805Z,100829.52
2018-10-01T02:49:08.116Z,100834.05
2018-10-01T02:51:41.816Z,100840.76
2018-10-01T02:54:15.427Z,100835.58
2018-10-01T02:56:43.743Z,100830.06
2018-10-01T02:59:12.069Z,100832.45
2018-10-01T03:01:40.406Z,100833.73
2018-10-01T03:04:08.735Z,100828.91
2018-10-01T03:06:37.055Z,100830.02
2018-10-01T03:09:10.154Z,100824.55
2018-10-01T03:11:38.458Z,100835.86
2018-10-01T03:14:06.763Z,100833.17
2018-10-01T03:16:35.102Z,100826.67
2018-10-01T03:19:03.406Z,100826.95
2018-10-01T03:21:31.716Z,100822.14
2018-10-01T03:24:00.042Z,100823.24
2018-10-01T03:26:28.356Z,100820.77
2018-10-01T03:28:56.733Z,100824.30
2018-10-01T03:31:25.098Z,100827.21
2018-10-01T03:33:53.464Z,100826.34
2018-10-01T03:36:21.772Z,100824.97
2018-10-01T03:38:50.105Z,100824.21
2018-10-01T03:41:18.425Z,100829.75
2018-10-01T03:43:46.829Z,100822.14
2018-10-01T03:46:15.133Z,100819.79
2018-10-01T03:48:43.472Z,100817.77
2018-10-01T03:51:11.950Z,100815.79
2018-10-01T03:53:40.263Z,100811.84
2018-10-01T03:56:08.684Z,100817.72
2018-10-01T03:58:37.064Z,100816.06
2018-10-01T04:01:05.403Z,100815.24
2018-10-01T04:03:33.732Z,100815.09
2018-10-01T04:06:02.323Z,100818.08
2018-10-01T04:08:30.641Z,100817.93
2018-10-01T04:10:58.959Z,100816.83
2018-10-01T04:13:27.266Z,100823.89
2018-10-01T04:15:55.594Z,100817.93
2018-10-01T04:18:23.945Z,100819.86
2018-10-01T04:20:52.235Z,100827.08
2018-10-01T04:23:20.546Z,100820.02
2018-10-01T04:25:48.836Z,100820.71
2018-10-01T04:28:17.210Z,100819.73
2018-10-01T04:30:45.514Z,100824.17
2018-10-01T04:33:13.852Z,100824.01
2018-10-01T04:35:42.207Z,100826.52
2018-10-01T04:38:10.528Z,100826.85
2018-10-01T04:40:38.848Z,100831.34
2018-10-01T04:43:07.147Z,100839.08
2018-10-01T04:45:35.487Z,100842.07
2018-10-01T04:48:03.869Z,100837.77
2018-10-01T04:50:32.209Z,100846.84
2018-10-01T04:53:00.552Z,100840.76
2018-10-01T04:55:28.956Z,100846.97
2018-10-01T04:57:57.471Z,100848.77
2018-10-01T05:00:25.716Z,100854.67
2018-10-01T05:02:54.271Z,100861.37
2018-10-01T05:05:22.685Z,100861.86
2018-10-01T05:07:51.011Z,100872.71
2018-10-01T05:10:19.360Z,100862.19
2018-10-01T05:12:47.685Z,100865.03
2018-10-01T05:15:16.059Z,100858.52
2018-10-01T05:17:44.404Z,100860.10
2018-10-01T05:20:12.777Z,100860.52
2018-10-01T05:22:41.116Z,100865.02
2018-10-01T05:25:09.408Z,100870.00
2018-10-01T05:27:37.733Z,100871.86
2018-10-01T05:30:06.046Z,100865.28
2018-10-01T05:32:34.380Z,100875.16
2018-10-01T05:35:02.696Z,100878.43
2018-10-01T05:37:31.060Z,100883.97
2018-10-01T05:39:59.368Z,100891.31
2018-10-01T05:42:27.682Z,100886.12
2018-10-01T05:44:56.001Z,100882.61
2018-10-01T05:47:24.311Z,100889.61
2018-10-01T05:49:52.640Z,100894.78
2018-10-01T05:52:20.932Z,100899.70
2018-10-01T05:54:49.245Z,100899.09
2018-10-01T05:57:17.541Z,100903.70
2018-10-01T05:59:45.865Z,100913.47
2018-10-01T06:02:14.223Z,100910.02
2018-10-01T06:04:42.553Z,100909.67
2018-10-01T06:07:10.847Z,100916.73
2018-10-01T06:09:39.160Z,100916.86
2018-10-01T06:12:07.698Z,100925.02
2018-10-01T06:14:36.010Z,100930.09
2018-10-01T06:17:04.305Z,100934.66
2018-10-01T06:19:32.691Z,100937.89
2018-10-01T06:22:01.006Z,100938.26
2018-10-01T06:24:29.363Z,100946.48
2018-10-01T06:26:57.696Z,100946.81
2018-10-01T06:29:26.023Z,100948.63
2018-10-01T06:31:54.324Z,100952.91
2018-10-01T06:34:22.601Z,100957.70
2018-10-01T06:36:50.934Z,100964.28
2018-10-01T06:39:19.242Z,100957.41
2018-10-01T06:41:47.651Z,100957.98
2018-10-01T06:44:15.924Z,100959.85
2018-10-01T06:46:44.215Z,100954.50
2018-10-01T06:49:12.536Z,100947.87
2018-10-01T06:51:40.879Z,100963.86
2018-10-01T06:54:09.260Z,100967.38
2018-10-01T06:56:37.573Z,100967.11
2018-10-01T06:59:06.008Z,100973.07
2018-10-01T07:01:34.406Z,100971.81
2018-10-01T07:04:02.816Z,100970.89
2018-10-01T07:06:31.151Z,100978.11
2018-10-01T07:08:59.715Z,100978.72
2018-10-01T07:11:28.151Z,100982.23
2018-10-01T07:13:56.385Z,100983.60
2018-10-01T07:16:24.731Z,100984.80
2018-10-01T07:18:53.164Z,100989.91
2018-10-01T07:21:21.573Z,100993.27
2018-10-01T07:23:49.877Z,100993.33
2018-10-01T07:26:18.245Z,100991.78
2018-10-01T07:28:46.567Z,100991.50
2018-10-01T07:31:14.960Z,100986.16
2018-10-01T07:33:43.337Z,100987.53
2018-10-01T07:36:11.681Z,100993.05
2018-10-01T07:38:39.988Z,100984.38
2018-10-01T07:41:08.295Z,100989.56
2018-10-01T07:43:36.581Z,100990.31
2018-10-01T07:46:05.018Z,100988.27
2018-10-01T07:48:33.263Z,100989.14
2018-10-01T07:51:01.871Z,100994.66
2018-10-01T07:53:30.098Z,100998.16
2018-10-01T07:55:58.371Z,101001.49
2018-10-01T07:58:27.067Z,101010.27
2018-10-01T08:00:55.379Z,101009.85
2018-10-01T08:03:24.065Z,101008.41
2018-10-01T08:05:52.410Z,101013.93
2018-10-01T08:08:20.847Z,101013.72
2018-10-01T08:10:49.336Z,101023.19
2018-10-01T08:13:17.672Z,101023.88
2018-10-01T08:15:46.021Z,101029.89
2018-10-01T08:18:14.808Z,101024.20
2018-10-01T08:20:43.137Z,101033.10
2018-10-01T08:23:11.485Z,101038.77
2018-10-01T08:25:39.828Z,101036.47
2018-10-01T08:28:08.306Z,101043.09
2018-10-01T08:30:36.653Z,101041.98
2018-10-01T08:33:04.962Z,101041.88
2018-10-01T08:35:33.442Z,101051.02
2018-10-01T08:38:01.942Z,101053.06
2018-10-01T08:40:30.228Z,101052.63
2018-10-01T08:42:58.585Z,101058.94
2018-10-01T08:45:26.935Z,101055.50
2018-10-01T08:47:55.324Z,101057.05
2018-10-01T08:50:29.022Z,101067.11
2018-10-01T08:53:08.503Z,101066.81
2018-10-01T08:55:37.085Z,101074.97
2018-10-01T08:58:05.409Z,101070.05
2018-10-01T09:00:33.708Z,101073.70
2018-10-01T09:03:02.068Z,101076.53
2018-10-01T09:05:30.461Z,101077.91
2018-10-01T09:07:58.747Z,101070.23
2018-10-01T09:10:27.102Z,101073.28
2018-10-01T09:12:55.419Z,101075.83
2018-10-01T09:15:23.829Z,101073.78
2018-10-01T09:17:52.269Z,101082.58
2018-10-01T09:20:20.826Z,101082.80
2018-10-01T09:22:49.178Z,101080.38
2018-10-01T09:25:17.557Z,101087.67
2018-10-01T09:27:45.916Z,101088.07
2018-10-01T09:30:14.220Z,101086.16
2018-10-01T09:32:42.608Z,101087.51
2018-10-01T09:35:10.988Z,101090.08
2018-10-01T09:37:39.448Z,101085.44
2018-10-01T09:40:07.805Z,101079.19
2018-10-01T09:42:36.113Z,101086.53
2018-10-01T09:45:04.488Z,101087.03
2018-10-01T09:47:32.827Z,101090.68
2018-10-01T09:50:01.185Z,101094.97
2018-10-01T09:52:29.529Z,101089.17
2018-10-01T09:54:57.858Z,101085.20
2018-10-01T09:57:26.216Z,101082.70
2018-10-01T09:59:54.560Z,101080.73
2018-10-01T10:02:22.907Z,101083.05
2018-10-01T10:04:51.283Z,101085.84
2018-10-01T10:07:19.737Z,101081.37
2018-10-01T10:09:48.076Z,101091.45
2018-10-01T10:12:16.416Z,101094.42
2018-10-01T10:14:44.788Z,101087.13
2018-10-01T10:17:13.182Z,101089.45
2018-10-01T10:19:41.513Z,101079.55
2018-10-01T10:22:09.819Z,101082.05
2018-10-01T10:24:38.250Z,101080.58
2018-10-01T10:27:06.588Z,101081.11
2018-10-01T10:29:34.916Z,101085.25
2018-10-01T10:32:03.322Z,101087.23
2018-10-01T10:34:31.661Z,101086.41
2018-10-01T10:36:59.895Z,101102.77
2018-10-01T10:39:28.263Z,101110.82
2018-10-01T10:41:56.609Z,101118.61
2018-10-01T10:44:24.894Z,101107.27
2018-10-01T10:46:53.243Z,101109.41
2018-10-01T10:49:21.605Z,101108.34
2018-10-01T10:51:49.934Z,101110.58
2018-10-01T10:54:18.256Z,101113.16
2018-10-01T10:56:46.650Z,101108.41
2018-10-01T10:59:14.927Z,101104.70
2018-10-01T11:01:43.266Z,101102.42
2018-10-01T11:04:11.580Z,101110.05
2018-10-01T11:06:39.868Z,101103.95
2018-10-01T11:09:09.585Z,101102.41
2018-10-01T11:11:37.977Z,101108.55
2018-10-01T11:14:06.756Z,101114.33
2018-10-01T11:16:35.038Z,101130.65
2018-10-01T11:19:03.491Z,101136.97
2018-10-01T11:21:31.748Z,101145.80
2018-10-01T11:23:59.994Z,101146.48
2018-10-01T11:26:28.320Z,101158.80
2018-10-01T11:28:56.708Z,101153.20
2018-10-01T11:31:24.978Z,101149.88
2018-10-01T11:33:53.480Z,101153.24
2018-10-01T11:36:21.839Z,101152.16
2018-10-01T11:38:50.110Z,101148.36
2018-10-01T11:41:18.448Z,101160.70
2018-10-01T11:43:46.773Z,101155.55
2018-10-01T11:46:15.099Z,101158.58
2018-10-01T11:48:43.444Z,101156.89
2018-10-01T11:51:11.825Z,101155.37
2018-10-01T11:53:40.385Z,101167.98
2018-10-01T11:56:08.728Z,101164.99
2018-10-01T11:58:37.047Z,101162.20
2018-10-01T12:01:05.439Z,101171.83
2018-10-01T12:03:33.848Z,101168.59
2018-10-01T12:06:02.133Z,101175.90
2018-10-01T12:08:30.420Z,101182.90
2018-10-01T12:10:58.768Z,101187.05
2018-10-01T12:13:27.084Z,101194.73
2018-10-01T12:15:55.534Z,101188.20
2018-10-01T12:18:23.747Z,101191.17
2018-10-01T12:20:52.106Z,101186.95
2018-10-01T12:23:20.411Z,101190.36
2018-10-01T12:25:48.755Z,101193.92
2018-10-01T12:28:17.057Z,101193.73
2018-10-01T12:30:45.468Z,101190.82
2018-10-01T12:33:13.897Z,101192.87
2018-10-01T12:35:42.175Z,101186.84
2018-10-01T12:38:10.475Z,101178.86
2018-10-01T12:40:38.783Z,101178.47
2018-10-01T12:43:07.284Z,101183.23
2018-10-01T12:45:35.649Z,101176.56
2018-10-01T12:48:03.986Z,101175.34
2018-10-01T12:50:33.015Z,101170.83
2018-10-01T12:53:01.228Z,101171.20
2018-10-01T12:55:29.740Z,101169.67
2018-10-01T12:57:58.041Z,101167.34
2018-10-01T13:00:26.357Z,101158.53
2018-10-01T13:02:54.653Z,101162.11
2018-10-01T13:05:22.957Z,101163.88
2018-10-01T13:07:51.299Z,101167.63
2018-10-01T13:10:19.622Z,101172.90
2018-10-01T13:12:47.937Z,101178.98
2018-10-01T13:15:16.305Z,101173.19
2018-10-01T13:17:44.861Z,101186.19
2018-10-01T13:20:14.140Z,101223.17
2018-10-01T13:22:42.436Z,101207.84
2018-10-01T13:25:10.744Z,101209.11
2018-10-01T13:27:39.078Z,101212.09
2018-10-01T13:30:07.508Z,101210.02
2018-10-01T13:32:35.881Z,101211.50
2018-10-01T13:35:05.028Z,101211.89
2018-10-01T13:37:33.411Z,101213.80
2018-10-01T13:40:01.788Z,101209.47
2018-10-01T13:42:30.145Z,101210.17
2018-10-01T13:44:58.424Z,101204.24
2018-10-01T13:47:26.805Z,101188.95
2018-10-01T13:49:55.361Z,101199.95
2018-10-01T13:52:23.709Z,101204.23
2018-10-01T13:54:52.026Z,101195.00
2018-10-01T13:57:20.322Z,101202.87
2018-10-01T13:59:48.703Z,101191.73
2018-10-01T14:02:17.155Z,101191.48
2018-10-01T14:04:45.492Z,101196.55
2018-10-01T14:07:13.876Z,101191.08
2018-10-01T14:09:42.187Z,101191.55
2018-10-01T14:12:10.564Z,101192.59
2018-10-01T14:14:38.886Z,101193.45
2018-10-01T14:17:07.419Z,101187.75
2018-10-01T14:19:35.777Z,101183.48
2018-10-01T14:22:04.096Z,101183.66
2018-10-01T14:24:32.404Z,101194.00
2018-10-01T14:27:00.726Z,101207.75
2018-10-01T14:29:29.057Z,101192.80
2018-10-01T14:31:57.343Z,101192.23
2018-10-01T14:34:25.680Z,101198.05
2018-10-01T14:36:54.110Z,101206.86
2018-10-01T14:39:23.132Z,101209.89
2018-10-01T14:41:51.435Z,101215.12
2018-10-01T14:44:19.750Z,101213.69
2018-10-01T14:46:48.078Z,101210.30
2018-10-01T14:49:17.197Z,101207.19
2018-10-01T14:51:45.649Z,101216.06
2018-10-01T14:54:14.099Z,101213.89
2018-10-01T14:56:42.364Z,101222.22
2018-10-01T14:59:10.651Z,101238.84
2018-10-01T15:01:39.640Z,101239.41
2018-10-01T15:04:07.999Z,101250.67
2018-10-01T15:06:36.353Z,101249.59
2018-10-01T15:09:06.631Z,101245.09
2018-10-01T15:11:34.978Z,101246.10
2018-10-01T15:14:03.396Z,101252.02
2018-10-01T15:16:32.716Z,101250.36
2018-10-01T15:19:01.021Z,101253.70
2018-10-01T15:21:30.129Z,101251.61
2018-10-01T15:23:58.569Z,101258.64
2018-10-01T15:26:26.852Z,101265.62
2018-10-01T15:28:55.305Z,101256.86
2018-10-01T15:31:23.613Z,101258.72
2018-10-01T15:33:51.916Z,101267.75
2018-10-01T15:36:20.478Z,101269.30
2018-10-01T15:38:48.811Z,101271.89
2018-10-01T15:41:18.494Z,101273.95
2018-10-01T15:43:46.800Z,101276.05
2018-10-01T15:46:15.135Z,101277.66
2018-10-01T15:48:43.439Z,101285.23
2018-10-01T15:51:11.782Z,101287.38
2018-10-01T15:53:40.052Z,101283.34
2018-10-01T15:56:09.469Z,101290.05
2018-10-01T15:58:39.710Z,101295.20
2018-10-01T16:01:08.021Z,101307.52
2018-10-01T16:03:36.363Z,101300.66
2018-10-01T16:06:05.885Z,101307.11
2018-10-01T16:08:35.377Z,101308.94
2018-10-01T16:11:03.706Z,101314.70
2018-10-01T16:13:32.144Z,101314.22
2018-10-01T16:16:00.529Z,101321.17
2018-10-01T16:18:28.821Z,101323.38
2018-10-01T16:20:57.604Z,101321.23
2018-10-01T16:23:26.310Z,101320.41
2018-10-01T16:25:54.721Z,101333.73
2018-10-01T16:28:23.029Z,101334.13
2018-10-01T16:30:51.351Z,101335.32
2018-10-01T16:33:19.669Z,101345.08
2018-10-01T16:35:47.988Z,101348.59
2018-10-01T16:38:16.541Z,101349.02
2018-10-01T16:40:44.847Z,101346.66
2018-10-01T16:43:13.559Z,101354.33
2018-10-01T16:45:41.895Z,101361.41
2018-10-01T16:48:10.193Z,101361.06
2018-10-01T16:50:38.516Z,101356.34
2018-10-01T16:53:08.637Z,101363.87
2018-10-01T16:55:36.941Z,101370.38
2018-10-01T16:58:05.280Z,101365.14
2018-10-01T17:02:03.946Z,101362.39
2018-10-01T17:04:32.492Z,101366.75
2018-10-01T17:07:00.850Z,101367.77
2018-10-01T17:09:35.624Z,101380.69
2018-10-01T17:12:03.921Z,101391.85
2018-10-01T17:14:32.272Z,101397.48
2018-10-01T17:17:00.629Z,101394.42
2018-10-01T17:19:28.978Z,101407.84
2018-10-01T17:21:57.256Z,101411.32
2018-10-01T17:24:25.587Z,101421.16
2018-10-01T17:26:53.879Z,101427.59
2018-10-01T17:29:22.207Z,101435.48
2018-10-01T17:31:50.541Z,101437.63
2018-10-01T17:34:18.919Z,101435.14
2018-10-01T17:36:47.219Z,101432.03
2018-10-01T17:39:15.540Z,101438.27
2018-10-01T17:41:43.861Z,101434.31
2018-10-01T17:44:12.165Z,101444.61
2018-10-01T17:46:40.551Z,101452.50
2018-10-01T17:49:08.876Z,101447.83
2018-10-01T17:51:37.208Z,101449.54
2018-10-01T17:54:05.590Z,101453.98
2018-10-01T17:56:34.286Z,101455.93
2018-10-01T17:59:02.601Z,101453.16
2018-10-01T18:01:30.933Z,101455.44
2018-10-01T18:04:00.328Z,101463.93
2018-10-01T18:06:28.625Z,101459.27
2018-10-01T18:08:56.969Z,101465.39
2018-10-01T18:11:25.314Z,101464.72
2018-10-01T18:13:53.642Z,101474.27
2018-10-01T18:16:22.016Z,101470.72
2018-10-01T18:18:50.304Z,101477.77
2018-10-01T18:21:18.642Z,101481.48
2018-10-01T18:23:47.018Z,101480.75
2018-10-01T18:26:15.304Z,101491.89
2018-10-01T18:28:43.711Z,101503.72
2018-10-01T18:31:12.052Z,101505.90
2018-10-01T18:33:40.368Z,101505.89
2018-10-01T18:36:17.692Z,101506.27
2018-10-01T18:38:46.001Z,101505.79
2018-10-01T18:41:14.336Z,101510.34
2018-10-01T18:43:42.763Z,101507.83
2018-10-01T18:46:11.033Z,101504.47
2018-10-01T18:48:39.397Z,101511.66
2018-10-01T18:51:07.868Z,101523.47
2018-10-01T18:53:36.186Z,101523.49
2018-10-01T18:56:04.608Z,101515.23
2018-10-01T18:58:32.920Z,101518.00
2018-10-01T19:01:01.264Z,101522.66
2018-10-01T19:03:29.671Z,101520.23
2018-10-01T19:05:57.958Z,101517.16
2018-10-01T19:08:26.373Z,101513.80
2018-10-01T19:10:54.665Z,101515.60
2018-10-01T19:13:22.976Z,101519.79
2018-10-01T19:15:51.322Z,101520.23
2018-10-01T19:18:19.681Z,101520.23
2018-10-01T19:20:48.115Z,101522.66
2018-10-01T19:23:16.425Z,101521.82
2018-10-01T19:25:46.180Z,101524.90
2018-10-01T19:28:14.498Z,101524.06
2018-10-01T19:30:42.851Z,101521.58
2018-10-01T19:33:11.180Z,101523.23
2018-10-01T19:35:39.569Z,101522.05
2018-10-01T19:38:07.916Z,101515.61
2018-10-01T19:40:36.267Z,101520.37
2018-10-01T19:43:05.187Z,101528.02
2018-10-01T19:45:33.716Z,101525.95
2018-10-01T19:48:02.023Z,101533.70
2018-10-01T19:50:30.369Z,101531.44
2018-10-01T19:52:58.718Z,101527.38
2018-10-01T19:55:27.021Z,101529.50
2018-10-01T19:57:55.368Z,101532.94
2018-10-01T20:00:23.839Z,101531.59
2018-10-01T20:02:52.164Z,101538.52
2018-10-01T20:05:20.599Z,101547.45
2018-10-01T20:07:48.859Z,101547.67
2018-10-01T20:10:17.231Z,101544.53
2018-10-01T20:12:45.566Z,101547.98
2018-10-01T20:15:14.319Z,101550.23
2018-10-01T20:17:42.650Z,101550.94
2018-10-01T20:20:10.975Z,101545.42
2018-10-01T20:22:39.316Z,101542.93
2018-10-01T20:25:07.633Z,101549.58
2018-10-01T20:27:36.041Z,101544.69
2018-10-01T20:30:04.353Z,101543.69
2018-10-01T20:32:32.680Z,101542.25
2018-10-01T20:35:01.047Z,101544.73
2018-10-01T20:37:29.322Z,101544.60
2018-10-01T20:39:57.657Z,101539.58
2018-10-01T20:42:26.061Z,101543.60
2018-10-01T20:44:54.313Z,101547.75
2018-10-01T20:47:22.726Z,101544.78
2018-10-01T20:49:51.094Z,101543.95
2018-10-01T20:52:19.444Z,101544.52
2018-10-01T20:54:47.805Z,101550.38
2018-10-01T20:57:16.194Z,101546.00
2018-10-01T20:59:44.763Z,101553.38
2018-10-01T21:02:13.116Z,101545.87
2018-10-01T21:04:41.468Z,101539.05
2018-10-01T21:07:09.928Z,101545.30
2018-10-01T21:09:38.232Z,101543.98
2018-10-01T21:12:06.930Z,101549.93
2018-10-01T21:14:35.244Z,101553.48
2018-10-01T21:17:03.600Z,101542.85
2018-10-01T21:19:32.432Z,101545.13
2018-10-01T21:22:00.746Z,101542.98
2018-10-01T21:24:29.130Z,101541.28
2018-10-01T21:26:57.480Z,101544.50
2018-10-01T21:29:25.916Z,101539.83
2018-10-01T21:31:54.216Z,101541.01
2018-10-01T21:34:22.735Z,101549.44
2018-10-01T21:36:52.229Z,101546.59
2018-10-01T21:39:25.780Z,101547.03
2018-10-01T21:41:54.107Z,101543.84
2018-10-01T21:44:22.444Z,101547.90
2018-10-01T21:46:50.739Z,101540.12
2018-10-01T21:49:19.049Z,101540.88
2018-10-01T21:51:48.088Z,101540.88
2018-10-01T21:54:16.418Z,101541.58
2018-10-01T21:56:45.101Z,101546.82
2018-10-01T21:59:13.440Z,101547.66
2018-10-01T22:01:41.822Z,101540.39
2018-10-01T22:04:10.535Z,101546.47
2018-10-01T22:06:39.014Z,101540.12
2018-10-01T22:09:08.629Z,101549.78
2018-10-01T22:11:36.965Z,101549.66
2018-10-01T22:14:05.644Z,101544.11
2018-10-01T22:16:34.460Z,101542.94
2018-10-01T22:19:02.816Z,101544.07
2018-10-01T22:21:31.157Z,101536.48
2018-10-01T22:23:59.487Z,101535.56
2018-10-01T22:26:27.997Z,101533.42
2018-10-01T22:28:56.500Z,101527.86
2018-10-01T22:31:24.825Z,101528.22
2018-10-01T22:33:53.803Z,101532.05
2018-10-01T22:36:22.110Z,101532.88
2018-10-01T22:38:50.470Z,101526.42
2018-10-01T22:41:19.853Z,101522.36
2018-10-01T22:43:48.147Z,101523.19
2018-10-01T22:46:16.502Z,101522.67
2018-10-01T22:48:45.036Z,101520.48
2018-10-01T22:51:13.363Z,101515.37
2018-10-01T22:53:45.567Z,101524.06
2018-10-01T22:56:13.894Z,101521.36
2018-10-01T22:58:42.211Z,101523.76
2018-10-01T23:01:10.629Z,101525.11
2018-10-01T23:03:38.968Z,101519.87
2018-10-01T23:06:07.619Z,101521.34
2018-10-01T23:08:35.987Z,101522.05
2018-10-01T23:11:04.331Z,101525.75
2018-10-01T23:13:32.783Z,101522.43
2018-10-01T23:16:01.106Z,101529.11
2018-10-01T23:18:29.417Z,101523.64
2018-10-01T23:20:57.971Z,101524.86
2018-10-01T23:23:26.362Z,101528.57
2018-10-01T23:25:55.089Z,101524.50
2018-10-01T23:28:23.412Z,101522.97
2018-10-01T23:30:51.930Z,101517.59
2018-10-01T23:33:20.247Z,101520.12
2018-10-01T23:35:48.555Z,101515.57
2018-10-01T23:38:16.962Z,101511.64
2018-10-01T23:40:45.251Z,101515.57
2018-10-01T23:43:13.899Z,101524.31
2018-10-01T23:45:42.349Z,101518.33
2018-10-01T23:48:10.703Z,101518.80
2018-10-01T23:50:38.995Z,101517.97
2018-10-01T23:53:07.355Z,101514.27
2018-10-01T23:55:35.667Z,101516.78
2018-10-01T23:58:04.131Z,101516.66
